createdAt,value
2019-03-16T00:01:56.716Z,3.00
2019-03-16T00:04:16.806Z,3.30
2019-03-16T00:06:45.208Z,3.10
2019-03-16T00:09:13.883Z,3.17
2019-03-16T00:11:42.281Z,3.03
2019-03-16T00:14:10.883Z,3.07
2019-03-16T00:16:39.511Z,2.87
2019-03-16T00:19:08.205Z,2.80
2019-03-16T00:21:36.606Z,2.70
2019-03-16T00:24:05.059Z,3.00
2019-03-16T00:27:13.599Z,3.23
2019-03-16T00:29:41.985Z,3.13
2019-03-16T00:32:13.666Z,3.20
2019-03-16T00:34:40.721Z,3.77
2019-03-16T00:37:09.230Z,3.43
2019-03-16T00:39:37.965Z,2.90
2019-03-16T00:42:06.348Z,3.07
2019-03-16T00:44:34.726Z,3.30
2019-03-16T00:47:03.391Z,3.30
2019-03-16T00:49:31.790Z,2.97
2019-03-16T00:52:00.229Z,3.30
2019-03-16T00:54:28.866Z,3.13
2019-03-16T00:56:57.242Z,3.50
2019-03-16T00:59:25.625Z,3.30
2019-03-16T01:01:54.262Z,3.03
2019-03-16T01:04:22.658Z,2.90
2019-03-16T01:06:51.047Z,3.57
2019-03-16T01:09:19.434Z,3.47
2019-03-16T01:11:47.916Z,3.30
2019-03-16T01:14:16.349Z,3.60
2019-03-16T01:16:44.732Z,3.70
2019-03-16T01:19:13.364Z,3.13
2019-03-16T01:21:42.010Z,3.47
2019-03-16T01:24:10.395Z,3.13
2019-03-16T01:26:39.030Z,3.37
2019-03-16T01:29:07.410Z,3.30
2019-03-16T01:31:35.794Z,4.07
2019-03-16T01:34:04.427Z,3.10
2019-03-16T01:36:33.102Z,3.60
2019-03-16T01:39:01.485Z,2.93
2019-03-16T01:41:30.170Z,3.70
2019-03-16T01:43:58.856Z,3.37
2019-03-16T01:46:27.233Z,3.30
2019-03-16T01:48:55.869Z,3.07
2019-03-16T01:51:24.499Z,2.90
2019-03-16T01:53:53.185Z,3.30
2019-03-16T01:56:21.586Z,3.73
2019-03-16T01:58:50.204Z,2.93
2019-03-16T02:01:18.834Z,3.70
2019-03-16T02:03:47.518Z,3.20
2019-03-16T02:06:15.903Z,3.17
2019-03-16T02:08:44.283Z,3.67
2019-03-16T02:11:12.686Z,3.43
2019-03-16T02:13:41.345Z,3.87
2019-03-16T02:16:11.513Z,3.63
2019-03-16T02:18:40.203Z,3.60
2019-03-16T02:21:08.859Z,3.17
2019-03-16T02:23:37.218Z,3.47
2019-03-16T02:26:05.900Z,3.60
2019-03-16T02:28:34.278Z,3.30
2019-03-16T02:31:02.668Z,3.67
2019-03-16T02:33:31.345Z,3.20
2019-03-16T02:35:59.733Z,3.30
2019-03-16T02:38:47.466Z,3.10
2019-03-16T02:41:15.851Z,3.37
2019-03-16T02:43:44.229Z,3.33
2019-03-16T02:46:12.902Z,2.63
2019-03-16T02:48:41.286Z,3.40
2019-03-16T02:51:29.025Z,3.23
2019-03-16T02:53:57.403Z,3.10
2019-03-16T02:56:26.046Z,2.80
2019-03-16T02:58:54.683Z,3.20
2019-03-16T03:01:23.302Z,3.30
2019-03-16T03:03:51.687Z,3.10
2019-03-16T03:06:20.094Z,2.90
2019-03-16T03:08:48.477Z,3.50
2019-03-16T03:11:17.162Z,3.00
2019-03-16T03:13:45.566Z,3.30
2019-03-16T03:16:13.945Z,3.37
2019-03-16T03:18:42.318Z,3.73
2019-03-16T03:21:10.964Z,3.33
2019-03-16T03:23:39.349Z,3.73
2019-03-16T03:26:07.733Z,3.77
2019-03-16T03:28:36.128Z,3.50
2019-03-16T03:31:04.532Z,3.90
2019-03-16T03:33:57.993Z,3.80
2019-03-16T03:36:03.005Z,3.70
2019-03-16T03:38:31.382Z,3.93
2019-03-16T03:41:01.881Z,4.07
2019-03-16T03:43:29.937Z,3.80
2019-03-16T03:45:58.578Z,3.53
2019-03-16T03:48:26.955Z,3.33
2019-03-16T03:50:55.362Z,3.30
2019-03-16T03:53:23.741Z,3.70
2019-03-16T03:55:52.120Z,4.07
2019-03-16T03:58:20.778Z,3.50
2019-03-16T04:00:49.451Z,3.50
2019-03-16T04:03:17.977Z,3.73
2019-03-16T04:05:46.520Z,3.90
2019-03-16T04:08:14.974Z,4.03
2019-03-16T04:10:43.494Z,3.70
2019-03-16T04:13:11.881Z,3.80
2019-03-16T04:15:40.362Z,3.90
2019-03-16T04:18:08.766Z,4.03
2019-03-16T04:20:37.132Z,4.20
2019-03-16T04:23:05.513Z,4.13
2019-03-16T04:25:33.916Z,4.10
2019-03-16T04:28:02.655Z,4.40
2019-03-16T04:30:31.328Z,4.30
2019-03-16T04:32:59.724Z,3.63
2019-03-16T04:35:47.447Z,4.03
2019-03-16T04:38:15.843Z,3.80
2019-03-16T04:40:44.702Z,3.80
2019-03-16T04:43:14.330Z,4.10
2019-03-16T04:45:42.726Z,3.67
2019-03-16T04:48:11.107Z,3.90
2019-03-16T04:50:39.502Z,3.30
2019-03-16T04:53:07.885Z,3.40
2019-03-16T04:55:36.263Z,3.50
2019-03-16T04:58:23.997Z,3.30
2019-03-16T05:00:52.614Z,3.30
2019-03-16T05:03:21.258Z,2.97
2019-03-16T05:05:49.709Z,3.47
2019-03-16T05:08:18.274Z,3.83
2019-03-16T05:10:46.682Z,3.30
2019-03-16T05:13:15.339Z,3.17
2019-03-16T05:15:43.740Z,3.40
2019-03-16T05:18:12.122Z,3.50
2019-03-16T05:20:40.506Z,3.43
2019-03-16T05:23:08.900Z,3.03
2019-03-16T05:25:37.538Z,3.73
2019-03-16T05:28:06.187Z,3.70
2019-03-16T05:30:34.578Z,3.33
2019-03-16T05:33:22.309Z,3.83
2019-03-16T05:35:50.933Z,3.70
2019-03-16T05:38:19.320Z,3.97
2019-03-16T05:40:47.710Z,4.07
2019-03-16T05:43:16.095Z,3.23
2019-03-16T05:45:44.486Z,3.33
2019-03-16T05:48:13.120Z,3.43
2019-03-16T05:50:41.504Z,3.40
2019-03-16T05:53:09.901Z,3.37
2019-03-16T05:55:38.520Z,4.00
2019-03-16T05:58:07.149Z,3.70
2019-03-16T06:00:35.777Z,4.13
2019-03-16T06:03:04.524Z,4.50
2019-03-16T06:05:32.977Z,3.60
2019-03-16T06:08:01.688Z,3.77
2019-03-16T06:10:30.084Z,3.90
2019-03-16T06:12:58.462Z,4.77
2019-03-16T06:15:26.860Z,3.53
2019-03-16T06:17:55.244Z,3.90
2019-03-16T06:20:23.624Z,3.47
2019-03-16T06:22:52.102Z,3.93
2019-03-16T06:25:20.750Z,4.70
2019-03-16T06:27:49.434Z,3.87
2019-03-16T06:30:20.692Z,4.20
2019-03-16T06:32:47.983Z,3.73
2019-03-16T06:35:24.504Z,4.50
2019-03-16T06:37:46.827Z,3.90
2019-03-16T06:40:15.526Z,4.47
2019-03-16T06:42:43.907Z,4.40
2019-03-16T06:45:52.208Z,4.27
2019-03-16T06:48:20.905Z,4.40
2019-03-16T06:50:49.305Z,5.13
2019-03-16T06:53:19.638Z,4.40
2019-03-16T06:55:48.078Z,4.70
2019-03-16T06:58:16.477Z,4.93
2019-03-16T07:00:45.155Z,4.70
2019-03-16T07:03:13.551Z,4.20
2019-03-16T07:05:41.934Z,4.40
2019-03-16T07:08:10.311Z,4.50
2019-03-16T07:10:58.050Z,5.07
2019-03-16T07:13:26.706Z,5.43
2019-03-16T07:15:55.107Z,4.37
2019-03-16T07:18:23.774Z,4.90
2019-03-16T07:20:52.160Z,4.43
2019-03-16T07:23:20.909Z,4.87
2019-03-16T07:25:49.729Z,4.90
2019-03-16T07:28:18.123Z,5.00
2019-03-16T07:30:46.807Z,4.90
2019-03-16T07:33:15.240Z,4.67
2019-03-16T07:36:02.975Z,5.37
2019-03-16T07:38:31.360Z,4.87
2019-03-16T07:40:59.760Z,5.37
2019-03-16T07:43:28.142Z,5.00
2019-03-16T07:45:56.831Z,5.30
2019-03-16T07:48:37.031Z,5.87
2019-03-16T07:51:05.442Z,5.27
2019-03-16T07:53:33.842Z,4.73
2019-03-16T07:56:02.227Z,4.77
2019-03-16T07:58:30.606Z,5.10
2019-03-16T08:00:58.999Z,5.87
2019-03-16T08:03:27.682Z,4.33
2019-03-16T08:05:56.073Z,6.07
2019-03-16T08:08:24.455Z,4.90
2019-03-16T08:10:52.839Z,5.37
2019-03-16T08:13:21.486Z,5.73
2019-03-16T08:15:50.279Z,5.50
2019-03-16T08:18:19.003Z,4.00
2019-03-16T08:20:47.527Z,4.70
2019-03-16T08:23:16.000Z,5.10
2019-03-16T08:25:44.715Z,5.10
2019-03-16T08:28:13.099Z,5.17
2019-03-16T08:30:41.498Z,5.43
2019-03-16T08:33:10.168Z,4.77
2019-03-16T08:35:38.842Z,5.10
2019-03-16T08:38:26.580Z,4.90
2019-03-16T08:40:55.194Z,4.80
2019-03-16T08:43:23.659Z,5.63
2019-03-16T08:45:52.163Z,4.70
2019-03-16T08:48:23.062Z,4.47
2019-03-16T08:50:51.438Z,4.97
2019-03-16T08:53:39.084Z,4.27
2019-03-16T08:56:07.857Z,4.90
2019-03-16T08:58:36.239Z,5.30
2019-03-16T09:01:05.175Z,4.50
2019-03-16T09:03:43.102Z,4.70
2019-03-16T09:06:04.058Z,5.33
2019-03-16T09:08:32.719Z,4.73
2019-03-16T09:11:01.111Z,5.20
2019-03-16T09:13:29.792Z,4.93
2019-03-16T09:16:17.752Z,4.23
2019-03-16T09:18:46.287Z,4.43
2019-03-16T09:21:14.667Z,4.50
2019-03-16T09:23:43.384Z,5.10
2019-03-16T09:26:12.009Z,4.97
2019-03-16T09:28:40.616Z,5.10
2019-03-16T09:31:09.396Z,4.10
2019-03-16T09:33:37.709Z,4.20
2019-03-16T09:36:06.088Z,4.67
2019-03-16T09:38:34.710Z,4.57
2019-03-16T09:41:03.753Z,5.77
2019-03-16T09:43:32.119Z,5.17
2019-03-16T09:46:00.739Z,4.83
2019-03-16T09:48:29.119Z,4.77
2019-03-16T09:50:57.510Z,4.67
2019-03-16T09:53:26.171Z,4.27
2019-03-16T09:55:54.854Z,4.80
2019-03-16T09:58:31.190Z,5.13
2019-03-16T10:00:53.655Z,4.37
2019-03-16T10:03:22.066Z,5.20
2019-03-16T10:05:50.446Z,5.23
2019-03-16T10:08:19.459Z,5.00
2019-03-16T10:10:49.230Z,4.90
2019-03-16T10:13:17.604Z,4.80
2019-03-16T10:15:46.237Z,4.60
2019-03-16T10:18:14.872Z,4.40
2019-03-16T10:21:02.659Z,5.20
2019-03-16T10:23:31.277Z,4.67
2019-03-16T10:25:59.988Z,5.10
2019-03-16T10:28:28.381Z,4.57
2019-03-16T10:31:16.411Z,4.63
2019-03-16T10:33:44.807Z,5.00
2019-03-16T10:36:13.186Z,4.43
2019-03-16T10:38:41.582Z,4.83
2019-03-16T10:41:10.034Z,4.83
2019-03-16T10:43:38.699Z,4.57
2019-03-16T10:46:08.547Z,5.30
2019-03-16T10:48:37.499Z,4.53
2019-03-16T10:51:06.192Z,4.77
2019-03-16T10:53:53.965Z,5.40
2019-03-16T10:56:22.354Z,4.70
2019-03-16T10:58:56.539Z,4.47
2019-03-16T11:01:20.839Z,4.47
2019-03-16T11:03:49.219Z,5.00
2019-03-16T11:06:17.878Z,4.13
2019-03-16T11:08:46.551Z,3.87
2019-03-16T11:11:14.929Z,4.43
2019-03-16T11:13:43.763Z,4.17
2019-03-16T11:16:12.089Z,4.03
2019-03-16T11:18:40.742Z,4.37
2019-03-16T11:21:09.108Z,4.83
2019-03-16T11:23:37.497Z,4.90
2019-03-16T11:26:05.878Z,4.20
2019-03-16T11:28:34.255Z,4.87
2019-03-16T11:31:02.654Z,4.77
2019-03-16T11:33:31.026Z,4.70
2019-03-16T11:35:59.800Z,4.10
2019-03-16T11:38:47.522Z,4.10
2019-03-16T11:41:16.274Z,4.20
2019-03-16T11:43:44.945Z,4.23
2019-03-16T11:46:13.341Z,4.27
2019-03-16T11:48:42.022Z,4.70
2019-03-16T11:51:10.407Z,3.97
2019-03-16T11:53:38.802Z,4.70
2019-03-16T11:56:26.807Z,4.60
2019-03-16T11:58:55.194Z,4.30
2019-03-16T12:01:23.810Z,3.87
2019-03-16T12:03:52.454Z,4.50
2019-03-16T12:06:20.833Z,4.30
2019-03-16T12:08:49.215Z,3.90
2019-03-16T12:11:17.901Z,3.77
2019-03-16T12:13:46.280Z,3.83
2019-03-16T12:16:14.963Z,8.33
2019-03-16T12:19:02.681Z,4.10
2019-03-16T12:21:31.077Z,3.60
2019-03-16T12:24:18.802Z,3.70
2019-03-16T12:26:47.200Z,4.93
2019-03-16T12:29:35.238Z,3.80
2019-03-16T12:32:23.268Z,4.63
2019-03-16T12:34:51.949Z,3.53
2019-03-16T12:37:20.330Z,3.93
2019-03-16T12:39:48.722Z,4.00
2019-03-16T12:42:36.750Z,3.97
2019-03-16T12:45:45.053Z,3.90
2019-03-16T12:48:13.672Z,4.10
2019-03-16T12:50:42.062Z,4.13
2019-03-16T12:53:10.442Z,4.30
2019-03-16T12:55:38.826Z,4.63
2019-03-16T12:58:07.214Z,4.37
2019-03-16T13:00:35.829Z,3.97
2019-03-16T13:03:04.204Z,4.20
2019-03-16T13:05:32.913Z,4.00
2019-03-16T13:08:20.973Z,3.70
2019-03-16T13:10:49.346Z,3.63
2019-03-16T13:13:17.718Z,4.13
2019-03-16T13:15:46.122Z,4.47
2019-03-16T13:18:14.774Z,3.33
2019-03-16T13:20:43.462Z,3.53
2019-03-16T13:23:12.145Z,4.07
2019-03-16T13:25:40.530Z,4.40
2019-03-16T13:28:08.920Z,4.43
2019-03-16T13:30:56.886Z,3.93
2019-03-16T13:33:25.513Z,3.93
2019-03-16T13:35:53.899Z,4.37
2019-03-16T13:38:22.271Z,3.73
2019-03-16T13:40:50.663Z,4.00
2019-03-16T13:43:19.093Z,4.00
2019-03-16T13:45:47.712Z,4.17
2019-03-16T13:48:16.331Z,4.27
2019-03-16T13:50:44.953Z,4.20
2019-03-16T13:53:13.570Z,3.70
2019-03-16T13:55:42.193Z,4.30
2019-03-16T13:58:10.570Z,4.57
2019-03-16T14:00:39.014Z,4.27
2019-03-16T14:03:07.678Z,4.43
2019-03-16T14:05:36.058Z,3.73
2019-03-16T14:08:04.686Z,3.70
2019-03-16T14:10:33.894Z,3.77
2019-03-16T14:13:02.303Z,4.33
2019-03-16T14:15:30.661Z,4.10
2019-03-16T14:17:59.371Z,4.00
2019-03-16T14:20:27.989Z,3.80
2019-03-16T14:22:56.573Z,3.80
2019-03-16T14:25:24.999Z,3.97
2019-03-16T14:27:53.617Z,4.07
2019-03-16T14:30:39.097Z,4.40
2019-03-16T14:32:52.621Z,4.07
2019-03-16T14:35:21.244Z,3.87
2019-03-16T14:37:49.905Z,3.40
2019-03-16T14:40:18.679Z,3.47
2019-03-16T14:42:47.317Z,3.60
2019-03-16T14:45:16.981Z,3.30
2019-03-16T14:47:45.747Z,3.47
2019-03-16T14:50:21.710Z,3.53
2019-03-16T14:52:50.342Z,3.40
2019-03-16T14:55:19.025Z,3.80
2019-03-16T14:57:47.415Z,3.97
2019-03-16T15:00:17.716Z,3.73
2019-03-16T15:02:46.890Z,3.30
2019-03-16T15:05:16.215Z,3.90
2019-03-16T15:07:44.864Z,4.00
2019-03-16T15:10:15.357Z,4.10
2019-03-16T15:12:44.038Z,4.00
2019-03-16T15:15:16.989Z,3.40
2019-03-16T15:17:45.615Z,3.60
2019-03-16T15:20:14.295Z,3.63
2019-03-16T15:22:42.763Z,3.80
2019-03-16T15:25:12.131Z,3.90
2019-03-16T15:27:40.511Z,5.93
2019-03-16T15:30:20.730Z,4.80
2019-03-16T15:32:49.672Z,6.57
2019-03-16T15:35:18.350Z,3.90
2019-03-16T15:37:46.752Z,6.20
2019-03-16T15:40:15.741Z,4.37
2019-03-16T15:42:44.129Z,4.13
2019-03-16T15:45:24.245Z,4.30
2019-03-16T15:47:52.866Z,5.30
2019-03-16T15:50:21.308Z,4.90
2019-03-16T15:52:49.935Z,4.07
2019-03-16T15:55:18.417Z,5.10
2019-03-16T15:57:46.797Z,5.53
2019-03-16T16:00:17.187Z,4.33
2019-03-16T16:02:45.629Z,5.23
2019-03-16T16:05:14.323Z,3.83
2019-03-16T16:07:43.017Z,4.33
2019-03-16T16:10:18.881Z,4.47
2019-03-16T16:12:47.294Z,4.73
2019-03-16T16:15:15.795Z,4.73
2019-03-16T16:17:44.411Z,5.30
2019-03-16T16:20:17.567Z,4.03
2019-03-16T16:22:46.263Z,5.53
2019-03-16T16:25:14.972Z,4.00
2019-03-16T16:27:43.361Z,4.73
2019-03-16T16:30:15.865Z,4.90
2019-03-16T16:32:44.241Z,5.20
2019-03-16T16:35:13.774Z,3.80
2019-03-16T16:37:42.463Z,4.03
2019-03-16T16:40:19.021Z,4.27
2019-03-16T16:42:48.005Z,3.63
2019-03-16T16:45:17.299Z,5.07
2019-03-16T16:47:45.766Z,4.23
2019-03-16T16:50:16.987Z,4.70
2019-03-16T16:52:45.379Z,4.23
2019-03-16T16:55:13.828Z,4.40
2019-03-16T16:57:42.280Z,3.90
2019-03-16T17:00:19.047Z,4.47
2019-03-16T17:02:47.431Z,4.87
2019-03-16T17:05:16.215Z,4.90
2019-03-16T17:07:44.584Z,4.07
2019-03-16T17:10:17.496Z,4.10
2019-03-16T17:12:46.181Z,4.13
2019-03-16T17:15:19.530Z,5.43
2019-03-16T17:17:47.909Z,5.10
2019-03-16T17:20:16.800Z,5.13
2019-03-16T17:22:45.217Z,4.70
2019-03-16T17:25:14.543Z,5.47
2019-03-16T17:27:42.994Z,4.77
2019-03-16T17:30:14.401Z,4.50
2019-03-16T17:32:42.913Z,4.03
2019-03-16T17:35:11.674Z,4.13
2019-03-16T17:37:40.295Z,4.33
2019-03-16T17:40:11.566Z,3.80
2019-03-16T17:42:39.938Z,4.33
2019-03-16T17:45:11.549Z,4.40
2019-03-16T17:47:40.039Z,4.37
2019-03-16T17:50:10.266Z,4.30
2019-03-16T17:52:38.644Z,4.23
2019-03-16T17:55:09.175Z,5.23
2019-03-16T17:57:37.781Z,4.40
2019-03-16T18:00:09.383Z,5.70
2019-03-16T18:02:50.003Z,4.23
2019-03-16T18:05:08.946Z,4.40
2019-03-16T18:07:37.565Z,4.40
2019-03-16T18:10:13.002Z,4.50
2019-03-16T18:12:41.379Z,4.40
2019-03-16T18:15:12.075Z,4.90
2019-03-16T18:17:40.572Z,4.67
2019-03-16T18:20:11.700Z,4.37
2019-03-16T18:22:40.071Z,4.80
2019-03-16T18:25:13.044Z,4.20
2019-03-16T18:27:41.659Z,4.60
2019-03-16T18:30:15.284Z,4.73
2019-03-16T18:32:43.905Z,4.90
2019-03-16T18:35:12.614Z,4.60
2019-03-16T18:37:41.216Z,4.60
2019-03-16T18:40:16.343Z,5.17
2019-03-16T18:42:44.953Z,5.70
2019-03-16T18:45:17.992Z,6.00
2019-03-16T18:47:46.431Z,5.20
2019-03-16T18:50:15.135Z,5.20
2019-03-16T18:52:43.814Z,5.20
2019-03-16T18:55:13.149Z,5.37
2019-03-16T18:57:41.988Z,5.47
2019-03-16T19:00:17.593Z,4.90
2019-03-16T19:02:46.089Z,5.27
2019-03-16T19:05:14.726Z,4.67
2019-03-16T19:07:43.110Z,5.50
2019-03-16T19:10:15.588Z,4.67
2019-03-16T19:12:44.595Z,4.73
2019-03-16T19:15:17.101Z,5.53
2019-03-16T19:17:57.501Z,5.20
2019-03-16T19:20:18.733Z,4.90
2019-03-16T19:22:47.526Z,4.33
2019-03-16T19:25:20.686Z,5.40
2019-03-16T19:27:49.305Z,5.33
2019-03-16T19:30:18.569Z,5.70
2019-03-16T19:32:46.961Z,5.63
2019-03-16T19:35:15.637Z,5.60
2019-03-16T19:37:44.127Z,5.87
2019-03-16T19:40:17.516Z,6.40
2019-03-16T19:42:46.994Z,5.33
2019-03-16T19:45:15.662Z,5.53
2019-03-16T19:47:44.074Z,5.20
2019-03-16T19:50:16.723Z,5.57
2019-03-16T19:52:45.347Z,4.90
2019-03-16T19:55:14.351Z,5.07
2019-03-16T19:57:42.739Z,5.00
2019-03-16T20:00:13.960Z,4.80
2019-03-16T20:02:50.199Z,5.13
2019-03-16T20:05:13.248Z,5.37
2019-03-16T20:07:41.888Z,5.10
2019-03-16T20:10:20.516Z,5.03
2019-03-16T20:12:49.164Z,5.57
2019-03-16T20:15:17.577Z,4.63
2019-03-16T20:17:45.961Z,5.07
2019-03-16T20:20:15.974Z,5.53
2019-03-16T20:22:44.661Z,5.07
2019-03-16T20:25:13.174Z,5.57
2019-03-16T20:27:41.812Z,4.57
2019-03-16T20:30:12.771Z,4.93
2019-03-16T20:32:41.157Z,4.80
2019-03-16T20:35:09.899Z,4.87
2019-03-16T20:37:38.519Z,4.93
2019-03-16T20:40:17.559Z,5.13
2019-03-16T20:42:46.010Z,5.00
2019-03-16T20:45:14.535Z,5.47
2019-03-16T20:47:42.928Z,5.20
2019-03-16T20:50:14.263Z,5.10
2019-03-16T20:52:42.592Z,5.33
2019-03-16T20:55:11.199Z,5.60
2019-03-16T20:57:39.581Z,4.93
2019-03-16T21:00:14.400Z,4.90
2019-03-16T21:02:42.859Z,4.93
2019-03-16T21:05:11.499Z,5.03
2019-03-16T21:07:40.136Z,5.00
2019-03-16T21:10:12.716Z,5.10
2019-03-16T21:12:41.185Z,5.50
2019-03-16T21:15:14.431Z,4.47
2019-03-16T21:17:42.828Z,4.67
2019-03-16T21:20:18.728Z,4.43
2019-03-16T21:22:47.429Z,4.87
2019-03-16T21:25:16.495Z,5.13
2019-03-16T21:27:45.128Z,4.40
2019-03-16T21:30:21.414Z,4.37
2019-03-16T21:32:49.877Z,4.23
2019-03-16T21:35:18.254Z,4.70
2019-03-16T21:37:46.714Z,4.93
2019-03-16T21:40:15.632Z,4.27
2019-03-16T21:42:44.026Z,4.30
2019-03-16T21:45:13.698Z,4.70
2019-03-16T21:47:42.090Z,4.67
2019-03-16T21:50:13.017Z,4.90
2019-03-16T21:52:44.239Z,4.50
2019-03-16T21:55:12.430Z,4.70
2019-03-16T21:57:41.126Z,4.10
2019-03-16T22:00:12.794Z,4.60
2019-03-16T22:02:41.431Z,4.40
2019-03-16T22:05:10.316Z,4.77
2019-03-16T22:07:38.843Z,4.10
2019-03-16T22:10:09.720Z,4.23
2019-03-16T22:12:38.347Z,4.60
2019-03-16T22:15:09.864Z,5.20
2019-03-16T22:17:38.502Z,4.57
2019-03-16T22:20:09.987Z,5.00
2019-03-16T22:22:38.367Z,3.77
2019-03-16T22:25:07.895Z,4.50
2019-03-16T22:27:36.520Z,5.20
2019-03-16T22:30:08.195Z,4.50
2019-03-16T22:32:36.815Z,4.60
2019-03-16T22:35:08.985Z,5.20
2019-03-16T22:37:36.543Z,4.90
2019-03-16T22:40:07.513Z,4.60
2019-03-16T22:42:35.898Z,5.33
2019-03-16T22:45:06.248Z,4.60
2019-03-16T22:47:34.669Z,5.10
2019-03-16T22:50:03.661Z,4.30
2019-03-16T22:52:32.275Z,5.00
2019-03-16T22:55:00.979Z,5.43
2019-03-16T22:57:29.606Z,5.07
2019-03-16T22:59:58.235Z,5.00
2019-03-16T23:02:26.913Z,4.90
2019-03-16T23:04:55.548Z,6.20
2019-03-16T23:07:23.924Z,5.10
2019-03-16T23:09:52.307Z,5.80
2019-03-16T23:12:20.699Z,6.43
2019-03-16T23:14:49.084Z,5.13
2019-03-16T23:17:17.713Z,4.13
2019-03-16T23:19:46.393Z,5.03
2019-03-16T23:22:15.010Z,4.37
2019-03-16T23:24:43.646Z,4.40
2019-03-16T23:27:12.025Z,5.03
2019-03-16T23:29:40.409Z,4.90
2019-03-16T23:32:08.787Z,5.13
2019-03-16T23:34:37.418Z,4.23
2019-03-16T23:37:05.796Z,4.90
2019-03-16T23:39:34.173Z,4.47
2019-03-16T23:42:02.802Z,4.43
2019-03-16T23:44:33.817Z,5.10
2019-03-16T23:47:01.289Z,4.90
2019-03-16T23:49:29.674Z,4.60
2019-03-16T23:51:58.285Z,4.73
2019-03-16T23:54:26.987Z,4.50
2019-03-16T23:56:56.216Z,4.57
2019-03-16T23:59:24.827Z,4.53
